createdAt,value
2019-04-03T00:02:29.193Z,56123.12
2019-04-03T00:04:59.071Z,56100.50
2019-04-03T00:07:28.939Z,56119.01
2019-04-03T00:09:59.118Z,56086.11
2019-04-03T00:12:28.998Z,56088.16
2019-04-03T00:14:58.962Z,56074.80
2019-04-03T00:17:29.219Z,56079.94
2019-04-03T00:19:59.132Z,56078.91
2019-04-03T00:22:29.064Z,56121.07
2019-04-03T00:24:58.942Z,56090.22
2019-04-03T00:27:29.062Z,56126.21
2019-04-03T00:29:59.332Z,56104.62
2019-04-03T00:32:29.235Z,56100.50
2019-04-03T00:34:59.124Z,56088.16
2019-04-03T00:37:29.028Z,56111.81
2019-04-03T00:39:59.227Z,56092.28
2019-04-03T00:42:29.064Z,56121.07
2019-04-03T00:44:58.934Z,56098.45
2019-04-03T00:47:29.122Z,56099.47
2019-04-03T00:49:59.028Z,56137.52
2019-04-03T00:52:29.205Z,56134.43
2019-04-03T00:54:59.309Z,56113.87
2019-04-03T00:57:29.324Z,56119.01
2019-04-03T00:59:59.213Z,56133.41
2019-04-03T01:02:29.486Z,56114.90
2019-04-03T01:04:59.414Z,56106.67
2019-04-03T01:07:29.806Z,56117.98
2019-04-03T01:10:00.380Z,56111.81
2019-04-03T01:12:31.231Z,56128.27
2019-04-03T01:15:02.245Z,56109.76
2019-04-03T01:17:34.395Z,56164.25
2019-04-03T01:20:04.556Z,56123.12
2019-04-03T01:22:37.349Z,56130.32
2019-04-03T01:25:08.855Z,56132.38
2019-04-03T01:27:41.460Z,56129.29
2019-04-03T01:30:13.972Z,56137.52
2019-04-03T01:32:46.074Z,56117.98
2019-04-03T01:35:17.014Z,56102.56
2019-04-03T01:37:47.870Z,56134.43
2019-04-03T01:40:20.859Z,56120.04
2019-04-03T01:42:52.758Z,56127.23
2019-04-03T01:45:25.397Z,56134.43
2019-04-03T01:47:57.417Z,56141.63
2019-04-03T01:50:26.958Z,56149.86
2019-04-03T01:52:58.513Z,56135.46
2019-04-03T01:55:28.730Z,56145.75
2019-04-03T01:57:58.627Z,56133.41
2019-04-03T02:00:28.454Z,56143.69
2019-04-03T02:02:58.856Z,56117.98
2019-04-03T02:05:30.978Z,56119.01
2019-04-03T02:08:01.089Z,56123.12
2019-04-03T02:10:31.039Z,56113.87
2019-04-03T02:13:00.899Z,56128.27
2019-04-03T02:15:30.728Z,56113.87
2019-04-03T02:18:00.774Z,56108.73
2019-04-03T02:20:30.756Z,56102.56
2019-04-03T02:23:01.172Z,56110.79
2019-04-03T02:25:32.115Z,56125.18
2019-04-03T02:28:04.032Z,56136.49
2019-04-03T02:30:34.212Z,56119.01
2019-04-03T02:33:04.072Z,56137.52
2019-04-03T02:35:33.942Z,56131.35
2019-04-03T02:38:03.862Z,56143.69
2019-04-03T02:40:34.044Z,56125.18
2019-04-03T02:43:03.989Z,56159.11
2019-04-03T02:45:34.418Z,56109.76
2019-04-03T02:48:05.559Z,56160.14
2019-04-03T02:50:36.470Z,56164.25
2019-04-03T02:53:07.901Z,56145.75
2019-04-03T02:55:40.076Z,56162.20
2019-04-03T02:58:09.717Z,56155.00
2019-04-03T03:00:40.073Z,56112.84
2019-04-03T03:03:10.451Z,56138.55
2019-04-03T03:05:40.839Z,56146.77
2019-04-03T03:08:10.757Z,56143.69
2019-04-03T03:10:41.400Z,56140.61
2019-04-03T03:13:11.615Z,56145.75
2019-04-03T03:15:43.921Z,56122.09
2019-04-03T03:18:15.143Z,56152.94
2019-04-03T03:20:45.528Z,56148.83
2019-04-03T03:23:15.667Z,56155.00
2019-04-03T03:25:46.984Z,56153.97
2019-04-03T03:28:17.491Z,56133.41
2019-04-03T03:31:07.915Z,56131.35
2019-04-03T03:33:41.167Z,56117.98
2019-04-03T03:36:11.278Z,56145.75
2019-04-03T03:38:41.959Z,56164.25
2019-04-03T03:41:12.069Z,56131.35
2019-04-03T03:43:45.315Z,56152.94
2019-04-03T03:46:16.476Z,56127.23
2019-04-03T03:48:47.166Z,56153.97
2019-04-03T03:51:18.672Z,56125.18
2019-04-03T03:53:50.895Z,56133.41
2019-04-03T03:56:21.755Z,56121.07
2019-04-03T03:58:52.583Z,56139.57
2019-04-03T04:01:22.802Z,56145.75
2019-04-03T04:03:53.486Z,56157.05
2019-04-03T04:06:25.549Z,56157.05
2019-04-03T04:08:55.077Z,56133.41
2019-04-03T04:11:25.660Z,56116.95
2019-04-03T04:13:56.809Z,56152.94
2019-04-03T04:16:28.019Z,56151.91
2019-04-03T04:18:58.641Z,56103.59
2019-04-03T04:21:29.110Z,56162.20
2019-04-03T04:23:59.407Z,56128.27
2019-04-03T04:26:31.599Z,56161.17
2019-04-03T04:29:02.035Z,56150.89
2019-04-03T04:31:32.172Z,56153.97
2019-04-03T04:34:02.074Z,56124.15
2019-04-03T04:36:31.974Z,56182.76
2019-04-03T04:39:01.978Z,56135.46
2019-04-03T04:41:32.638Z,56183.79
2019-04-03T04:44:03.011Z,56143.69
2019-04-03T04:46:32.862Z,56158.09
2019-04-03T04:49:03.152Z,56147.80
2019-04-03T04:51:32.991Z,56170.42
2019-04-03T04:54:03.095Z,56166.31
2019-04-03T04:56:33.292Z,56121.07
2019-04-03T04:59:03.258Z,56165.28
2019-04-03T05:01:33.466Z,56203.33
2019-04-03T05:04:03.359Z,56162.20
2019-04-03T05:06:33.777Z,56159.11
2019-04-03T05:09:05.675Z,56160.14
2019-04-03T05:11:38.250Z,56157.05
2019-04-03T05:14:07.230Z,56180.71
2019-04-03T05:16:37.187Z,56175.56
2019-04-03T05:19:10.231Z,56172.48
2019-04-03T05:21:38.705Z,56146.77
2019-04-03T05:24:12.981Z,56147.80
2019-04-03T05:26:40.773Z,56184.82
2019-04-03T05:29:10.752Z,56140.61
2019-04-03T05:31:41.274Z,56177.62
2019-04-03T05:34:13.311Z,56111.81
2019-04-03T05:36:42.706Z,56196.13
2019-04-03T05:39:13.208Z,56132.38
2019-04-03T05:41:43.077Z,56137.52
2019-04-03T05:44:13.241Z,56132.38
2019-04-03T05:46:43.380Z,56170.42
2019-04-03T05:49:13.489Z,56174.54
2019-04-03T05:51:43.579Z,56135.46
2019-04-03T05:54:14.740Z,56132.38
2019-04-03T05:56:44.894Z,56139.57
2019-04-03T05:59:15.245Z,56157.05
2019-04-03T06:01:46.720Z,56135.46
2019-04-03T06:04:17.371Z,56142.66
2019-04-03T06:06:47.493Z,56119.01
2019-04-03T06:09:17.867Z,56132.38
2019-04-03T06:11:48.032Z,56140.61
2019-04-03T06:14:19.072Z,56144.71
2019-04-03T06:16:49.456Z,56119.01
2019-04-03T06:19:19.335Z,56130.32
2019-04-03T06:21:49.204Z,56133.41
2019-04-03T06:24:19.457Z,56112.84
2019-04-03T06:26:49.258Z,56109.76
2019-04-03T06:29:19.688Z,56119.01
2019-04-03T06:31:49.738Z,56119.01
2019-04-03T06:34:19.588Z,56119.01
2019-04-03T06:36:50.747Z,56139.57
2019-04-03T06:39:22.937Z,56135.46
2019-04-03T06:41:52.962Z,56129.29
2019-04-03T06:44:23.115Z,56127.23
2019-04-03T06:46:54.792Z,56136.49
2019-04-03T06:49:25.064Z,56176.59
2019-04-03T06:51:55.317Z,56131.35
2019-04-03T06:54:25.477Z,56179.68
2019-04-03T06:56:55.935Z,56130.32
2019-04-03T06:59:25.853Z,56119.01
2019-04-03T07:01:56.177Z,56130.32
2019-04-03T07:04:26.252Z,56148.83
2019-04-03T07:06:56.678Z,56076.85
2019-04-03T07:09:35.245Z,56166.31
2019-04-03T07:11:58.201Z,56145.75
2019-04-03T07:14:28.390Z,56152.94
2019-04-03T07:17:00.294Z,56139.57
2019-04-03T07:19:29.944Z,56135.46
2019-04-03T07:21:59.815Z,56136.49
2019-04-03T07:24:31.732Z,56100.50
2019-04-03T07:27:01.550Z,56128.27
2019-04-03T07:29:31.805Z,56114.90
2019-04-03T07:32:01.702Z,56139.57
2019-04-03T07:34:33.726Z,56114.90
2019-04-03T07:37:03.240Z,56123.12
2019-04-03T07:39:33.379Z,56134.43
2019-04-03T07:42:03.214Z,56120.04
2019-04-03T07:44:33.348Z,56125.18
2019-04-03T07:47:04.272Z,56136.49
2019-04-03T07:49:34.966Z,56136.49
2019-04-03T07:52:04.934Z,56082.00
2019-04-03T07:54:35.131Z,56091.25
2019-04-03T07:57:04.996Z,56119.01
2019-04-03T07:59:35.130Z,56093.30
2019-04-03T08:02:05.318Z,56113.87
2019-04-03T08:04:35.433Z,56103.59
2019-04-03T08:07:05.736Z,56067.60
2019-04-03T08:09:35.617Z,56112.84
2019-04-03T08:12:05.774Z,56074.80
2019-04-03T08:14:36.217Z,56085.08
2019-04-03T08:17:06.211Z,56092.28
2019-04-03T08:19:36.422Z,56068.62
2019-04-03T08:22:06.447Z,56086.11
2019-04-03T08:24:39.220Z,56060.40
2019-04-03T08:27:09.227Z,56076.85
2019-04-03T08:29:39.412Z,56073.77
2019-04-03T08:32:09.602Z,56125.18
2019-04-03T08:34:39.458Z,56090.22
2019-04-03T08:37:10.125Z,56056.29
2019-04-03T08:39:40.977Z,56079.94
2019-04-03T08:42:10.933Z,56091.25
2019-04-03T08:44:41.195Z,56092.28
2019-04-03T08:47:13.631Z,56053.20
2019-04-03T08:49:43.241Z,56086.11
2019-04-03T08:52:14.817Z,56076.85
2019-04-03T08:54:45.167Z,56061.43
2019-04-03T08:57:15.075Z,56124.15
2019-04-03T08:59:45.245Z,56088.16
2019-04-03T09:02:15.123Z,56086.11
2019-04-03T09:04:45.956Z,56094.33
2019-04-03T09:07:16.541Z,56085.08
2019-04-03T09:09:46.444Z,56056.29
2019-04-03T09:12:16.569Z,56047.03
2019-04-03T09:14:46.441Z,56055.26
2019-04-03T09:17:16.568Z,56073.77
2019-04-03T09:19:47.063Z,56110.79
2019-04-03T09:22:17.659Z,56075.82
2019-04-03T09:24:48.888Z,56078.91
2019-04-03T09:27:18.713Z,56086.11
2019-04-03T09:29:48.590Z,56076.85
2019-04-03T09:32:19.156Z,56086.11
2019-04-03T09:34:49.391Z,56073.77
2019-04-03T09:37:19.624Z,56079.94
2019-04-03T09:39:49.575Z,56108.73
2019-04-03T09:42:19.587Z,56111.81
2019-04-03T09:44:51.241Z,56101.53
2019-04-03T09:47:21.126Z,56072.74
2019-04-03T09:49:50.984Z,56050.12
2019-04-03T09:52:23.132Z,56077.88
2019-04-03T09:54:52.856Z,56073.77
2019-04-03T09:57:22.698Z,56086.11
2019-04-03T09:59:53.151Z,56069.65
2019-04-03T10:02:23.010Z,56067.60
2019-04-03T10:04:52.851Z,56036.75
2019-04-03T10:07:23.021Z,56061.43
2019-04-03T10:09:54.395Z,56052.18
2019-04-03T10:12:24.921Z,56086.11
2019-04-03T10:14:55.208Z,56076.85
2019-04-03T10:17:25.676Z,56040.86
2019-04-03T10:19:55.909Z,56051.14
2019-04-03T10:22:26.339Z,56065.54
2019-04-03T10:24:56.341Z,56026.47
2019-04-03T10:27:26.201Z,56027.50
2019-04-03T10:29:56.572Z,56022.36
2019-04-03T10:32:28.047Z,56044.98
2019-04-03T10:34:58.417Z,56036.75
2019-04-03T10:37:28.763Z,56037.78
2019-04-03T10:39:58.979Z,56056.29
2019-04-03T10:42:31.185Z,56026.47
2019-04-03T10:45:00.517Z,56047.03
2019-04-03T10:47:41.300Z,56031.61
2019-04-03T10:50:04.587Z,56031.61
2019-04-03T10:52:34.017Z,56003.85
2019-04-03T10:55:04.794Z,56023.38
2019-04-03T10:57:35.000Z,56001.79
2019-04-03T11:00:06.891Z,56040.86
2019-04-03T11:02:36.991Z,56055.26
2019-04-03T11:05:08.401Z,56019.27
2019-04-03T11:07:38.380Z,56007.96
2019-04-03T11:10:09.112Z,56032.64
2019-04-03T11:12:39.662Z,56020.30
2019-04-03T11:15:12.660Z,56016.19
2019-04-03T11:17:42.703Z,56023.38
2019-04-03T11:20:13.084Z,56018.24
2019-04-03T11:22:43.504Z,56005.90
2019-04-03T11:25:16.054Z,55971.97
2019-04-03T11:27:46.268Z,56038.81
2019-04-03T11:30:23.807Z,56014.13
2019-04-03T11:32:51.578Z,56049.09
2019-04-03T11:35:22.417Z,56012.07
2019-04-03T11:37:52.849Z,56018.24
2019-04-03T11:40:25.042Z,56020.30
2019-04-03T11:42:55.629Z,56015.16
2019-04-03T11:45:25.572Z,56006.93
2019-04-03T11:47:55.634Z,56046.00
2019-04-03T11:50:25.912Z,56028.52
2019-04-03T11:52:56.394Z,56028.52
2019-04-03T11:55:26.660Z,56016.19
2019-04-03T11:57:56.511Z,56018.24
2019-04-03T12:00:33.250Z,56069.65
2019-04-03T12:03:03.492Z,56036.75
2019-04-03T12:05:33.315Z,56032.64
2019-04-03T12:08:03.167Z,56042.92
2019-04-03T12:10:35.108Z,56037.78
2019-04-03T12:13:05.579Z,56039.84
2019-04-03T12:15:35.905Z,56024.41
2019-04-03T12:18:06.547Z,56034.70
2019-04-03T12:20:38.344Z,56037.78
2019-04-03T12:23:08.439Z,56046.00
2019-04-03T12:25:40.541Z,56051.14
2019-04-03T12:28:10.101Z,55996.65
2019-04-03T12:30:40.345Z,56018.24
2019-04-03T12:33:10.575Z,56029.55
2019-04-03T12:35:42.262Z,56028.52
2019-04-03T12:38:12.509Z,56030.58
2019-04-03T12:40:42.550Z,56051.14
2019-04-03T12:43:12.461Z,56013.10
2019-04-03T12:45:43.003Z,56018.24
2019-04-03T12:48:13.174Z,56013.10
2019-04-03T12:50:43.457Z,55978.14
2019-04-03T12:53:14.155Z,55950.38
2019-04-03T12:55:44.972Z,55975.06
2019-04-03T12:58:14.820Z,55970.95
2019-04-03T13:00:46.114Z,55990.48
2019-04-03T13:03:16.823Z,56011.05
2019-04-03T13:05:48.599Z,56018.24
2019-04-03T13:08:21.165Z,56007.96
2019-04-03T13:10:50.121Z,56030.58
2019-04-03T13:13:20.494Z,56001.79
2019-04-03T13:15:50.494Z,56015.16
2019-04-03T13:18:20.338Z,55986.37
2019-04-03T13:20:50.914Z,55977.11
2019-04-03T13:23:21.332Z,55967.86
2019-04-03T13:25:53.121Z,55999.73
2019-04-03T13:28:23.161Z,55991.51
2019-04-03T13:30:53.587Z,56016.19
2019-04-03T13:33:23.599Z,55968.89
2019-04-03T13:35:54.047Z,55987.40
2019-04-03T13:38:24.343Z,55945.24
2019-04-03T13:40:54.293Z,55989.45
2019-04-03T13:43:24.633Z,55996.65
2019-04-03T13:45:54.599Z,56003.85
2019-04-03T13:48:24.538Z,55994.59
2019-04-03T13:50:55.508Z,55970.95
2019-04-03T13:53:26.470Z,55999.73
2019-04-03T13:55:56.360Z,55994.59
2019-04-03T13:58:27.978Z,56003.85
2019-04-03T14:01:02.130Z,56019.27
2019-04-03T14:03:29.792Z,55998.71
2019-04-03T14:06:00.183Z,56008.99
2019-04-03T14:08:30.319Z,55983.28
2019-04-03T14:11:00.387Z,55993.57
2019-04-03T14:13:30.919Z,56008.99
2019-04-03T14:16:01.641Z,55996.65
2019-04-03T14:18:31.916Z,56014.13
2019-04-03T14:21:02.578Z,55993.57
2019-04-03T14:23:32.897Z,56004.87
2019-04-03T14:26:07.910Z,56020.30
2019-04-03T14:28:36.230Z,56028.52
2019-04-03T14:31:06.200Z,56007.96
2019-04-03T14:33:43.575Z,56022.36
2019-04-03T14:36:08.137Z,56030.58
2019-04-03T14:38:38.678Z,56022.36
2019-04-03T14:41:08.598Z,56036.75
2019-04-03T14:43:38.478Z,56014.13
2019-04-03T14:46:08.518Z,56014.13
2019-04-03T14:48:38.531Z,56017.21
2019-04-03T14:51:10.967Z,56020.30
2019-04-03T14:53:40.324Z,56022.36
2019-04-03T14:56:10.546Z,56019.27
2019-04-03T14:58:40.913Z,56001.79
2019-04-03T15:01:10.862Z,56012.07
2019-04-03T15:03:41.282Z,55996.65
2019-04-03T15:06:13.991Z,56017.21
2019-04-03T15:08:42.803Z,56003.85
2019-04-03T15:11:12.772Z,56022.36
2019-04-03T15:13:44.262Z,56051.14
2019-04-03T15:16:14.604Z,55993.57
2019-04-03T15:18:44.866Z,56014.13
2019-04-03T15:21:14.762Z,56057.32
2019-04-03T15:23:45.320Z,56018.24
2019-04-03T15:26:15.315Z,56032.64
2019-04-03T15:28:45.387Z,56053.20
2019-04-03T15:31:15.986Z,56051.14
2019-04-03T15:33:49.187Z,56042.92
2019-04-03T15:36:19.515Z,56049.09
2019-04-03T15:38:49.864Z,56033.67
2019-04-03T15:41:20.648Z,56042.92
2019-04-03T15:43:52.055Z,56062.46
2019-04-03T15:46:22.079Z,56026.47
2019-04-03T15:48:53.605Z,56069.65
2019-04-03T15:51:23.663Z,56067.60
2019-04-03T15:53:53.883Z,56049.09
2019-04-03T15:56:24.218Z,56028.52
2019-04-03T15:58:55.441Z,56035.72
2019-04-03T16:01:26.587Z,56061.43
2019-04-03T16:03:58.933Z,56040.86
2019-04-03T16:06:28.316Z,56059.37
2019-04-03T16:08:58.943Z,56023.38
2019-04-03T16:11:30.384Z,56039.84
2019-04-03T16:14:00.701Z,56012.07
2019-04-03T16:16:30.894Z,56024.41
2019-04-03T16:19:00.808Z,56054.23
2019-04-03T16:21:30.916Z,56069.65
2019-04-03T16:24:01.051Z,56065.54
2019-04-03T16:26:31.449Z,56052.18
2019-04-03T16:29:01.950Z,56044.98
2019-04-03T16:31:31.948Z,56012.07
2019-04-03T16:34:02.118Z,56038.81
2019-04-03T16:36:32.523Z,56037.78
2019-04-03T16:39:02.754Z,56027.50
2019-04-03T16:41:32.717Z,56059.37
2019-04-03T16:44:02.608Z,56025.44
2019-04-03T16:46:32.554Z,56067.60
2019-04-03T16:49:02.545Z,56084.05
2019-04-03T16:51:33.715Z,56063.48
2019-04-03T16:54:04.576Z,56090.22
2019-04-03T16:56:34.838Z,56066.57
2019-04-03T16:59:07.102Z,56059.37
2019-04-03T17:01:36.449Z,56052.18
2019-04-03T17:04:09.189Z,56066.57
2019-04-03T17:06:38.268Z,56046.00
2019-04-03T17:09:09.620Z,56069.65
2019-04-03T17:11:42.715Z,56082.00
2019-04-03T17:14:11.110Z,56051.14
2019-04-03T17:16:41.381Z,56047.03
2019-04-03T17:19:11.918Z,56097.42
2019-04-03T17:21:42.211Z,56065.54
2019-04-03T17:24:12.394Z,56067.60
2019-04-03T17:26:48.803Z,56059.37
2019-04-03T17:29:14.888Z,56065.54
2019-04-03T17:31:45.787Z,56098.45
2019-04-03T17:34:15.855Z,56075.82
2019-04-03T17:36:45.890Z,56058.34
2019-04-03T17:39:15.948Z,56082.00
2019-04-03T17:41:46.130Z,56064.51
2019-04-03T17:44:16.349Z,56108.73
2019-04-03T17:46:48.768Z,56088.16
2019-04-03T17:49:17.914Z,56084.05
2019-04-03T17:51:48.313Z,56103.59
2019-04-03T17:54:18.156Z,56068.62
2019-04-03T17:56:48.376Z,56084.05
2019-04-03T17:59:19.030Z,56080.96
2019-04-03T18:01:50.660Z,56103.59
2019-04-03T18:04:21.410Z,56079.94
2019-04-03T18:06:51.380Z,56090.22
2019-04-03T18:09:21.395Z,56093.30
2019-04-03T18:11:51.683Z,56084.05
2019-04-03T18:14:21.717Z,56106.67
2019-04-03T18:16:51.614Z,56116.95
2019-04-03T18:19:21.665Z,56087.14
2019-04-03T18:21:51.623Z,56091.25
2019-04-03T18:24:23.161Z,56074.80
2019-04-03T18:26:53.371Z,56084.05
2019-04-03T18:29:24.518Z,56103.59
2019-04-03T18:31:54.615Z,56092.28
2019-04-03T18:34:24.592Z,56109.76
2019-04-03T18:36:54.878Z,56100.50
2019-04-03T18:39:25.391Z,56129.29
2019-04-03T18:41:55.680Z,56098.45
2019-04-03T18:44:26.954Z,56088.16
2019-04-03T18:46:57.623Z,56112.84
2019-04-03T18:49:27.693Z,56109.76
2019-04-03T18:51:57.982Z,56136.49
2019-04-03T18:54:27.929Z,56079.94
2019-04-03T18:56:57.878Z,56117.98
2019-04-03T18:59:27.828Z,56093.30
2019-04-03T19:01:57.842Z,56129.29
2019-04-03T19:04:27.789Z,56104.62
2019-04-03T19:06:58.159Z,56110.79
2019-04-03T19:09:28.033Z,56114.90
2019-04-03T19:12:07.888Z,56123.12
2019-04-03T19:14:32.007Z,56149.86
2019-04-03T19:17:02.225Z,56119.01
2019-04-03T19:19:32.120Z,56116.95
2019-04-03T19:22:02.008Z,56143.69
2019-04-03T19:24:31.927Z,56107.70
2019-04-03T19:27:02.420Z,56105.64
2019-04-03T19:29:33.900Z,56132.38
2019-04-03T19:32:04.589Z,56138.55
2019-04-03T19:34:34.764Z,56092.28
2019-04-03T19:37:04.813Z,56126.21
2019-04-03T19:39:37.407Z,56128.27
2019-04-03T19:42:07.128Z,56138.55
2019-04-03T19:44:37.068Z,56130.32
2019-04-03T19:47:07.064Z,56147.80
2019-04-03T19:49:36.951Z,56093.30
2019-04-03T19:52:07.870Z,56100.50
2019-04-03T19:54:38.506Z,56115.93
2019-04-03T19:57:08.510Z,56106.67
2019-04-03T19:59:38.444Z,56143.69
2019-04-03T20:02:09.517Z,56124.15
2019-04-03T20:04:40.664Z,56125.18
2019-04-03T20:07:10.589Z,56124.15
2019-04-03T20:09:40.452Z,56098.45
2019-04-03T20:12:10.730Z,56127.23
2019-04-03T20:14:43.755Z,56125.18
2019-04-03T20:17:13.021Z,56086.11
2019-04-03T20:19:42.933Z,56146.77
2019-04-03T20:22:12.844Z,56136.49
2019-04-03T20:24:43.696Z,56115.93
2019-04-03T20:27:14.932Z,56125.18
2019-04-03T20:29:46.139Z,56114.90
2019-04-03T20:32:16.065Z,56116.95
2019-04-03T20:34:45.986Z,56135.46
2019-04-03T20:37:15.901Z,56128.27
2019-04-03T20:39:45.843Z,56114.90
2019-04-03T20:42:15.802Z,56112.84
2019-04-03T20:44:47.931Z,56143.69
2019-04-03T20:47:17.316Z,56131.35
2019-04-03T20:49:47.243Z,56128.27
2019-04-03T20:52:17.107Z,56156.03
2019-04-03T20:54:47.321Z,56095.36
2019-04-03T20:57:17.321Z,56100.50
2019-04-03T20:59:58.688Z,56149.86
2019-04-03T21:02:18.864Z,56142.66
2019-04-03T21:04:49.141Z,56120.04
2019-04-03T21:07:19.044Z,56113.87
2019-04-03T21:09:49.296Z,56159.11
2019-04-03T21:12:19.275Z,56128.27
2019-04-03T21:14:49.853Z,56169.39
2019-04-03T21:17:20.368Z,56139.57
2019-04-03T21:19:52.203Z,56151.91
2019-04-03T21:22:22.254Z,56150.89
2019-04-03T21:24:52.126Z,56127.23
2019-04-03T21:27:22.388Z,56137.52
2019-04-03T21:29:52.593Z,56155.00
2019-04-03T21:32:22.465Z,56140.61
2019-04-03T21:34:52.623Z,56097.42
2019-04-03T21:37:22.520Z,56140.61
2019-04-03T21:39:52.785Z,56137.52
2019-04-03T21:42:22.982Z,56110.79
2019-04-03T21:44:52.861Z,56142.66
2019-04-03T21:47:23.022Z,56127.23
2019-04-03T21:49:53.768Z,56143.69
2019-04-03T21:52:23.619Z,56121.07
2019-04-03T21:54:54.092Z,56131.35
2019-04-03T21:57:24.290Z,56153.97
2019-04-03T21:59:54.867Z,56158.09
2019-04-03T22:02:25.076Z,56145.75
2019-04-03T22:04:54.980Z,56131.35
2019-04-03T22:07:28.217Z,56138.55
2019-04-03T22:09:57.297Z,56119.01
2019-04-03T22:12:27.263Z,56141.63
2019-04-03T22:14:57.544Z,56173.51
2019-04-03T22:17:27.430Z,56138.55
2019-04-03T22:19:58.567Z,56141.63
2019-04-03T22:22:29.088Z,56173.51
2019-04-03T22:24:59.073Z,56123.12
2019-04-03T22:27:29.562Z,56111.81
2019-04-03T22:29:59.762Z,56123.12
2019-04-03T22:32:29.755Z,56178.65
2019-04-03T22:35:01.019Z,56123.12
2019-04-03T22:37:33.258Z,56117.98
2019-04-03T22:40:04.172Z,56102.56
2019-04-03T22:42:34.074Z,56137.52
2019-04-03T22:45:04.728Z,56124.15
2019-04-03T22:47:35.337Z,56152.94
2019-04-03T22:50:05.898Z,56141.63
2019-04-03T22:52:35.891Z,56121.07
2019-04-03T22:55:06.378Z,56141.63
2019-04-03T22:57:36.795Z,56162.20
2019-04-03T23:00:07.089Z,56151.91
2019-04-03T23:02:37.103Z,56138.55
2019-04-03T23:05:07.181Z,56128.27
2019-04-03T23:07:37.075Z,56185.85
2019-04-03T23:10:07.424Z,56141.63
2019-04-03T23:12:37.268Z,56143.69
2019-04-03T23:15:09.420Z,56137.52
2019-04-03T23:17:39.415Z,56134.43
2019-04-03T23:20:09.571Z,56124.15
2019-04-03T23:22:39.550Z,56149.86
2019-04-03T23:25:09.533Z,56125.18
2019-04-03T23:27:39.744Z,56145.75
2019-04-03T23:30:10.921Z,56153.97
2019-04-03T23:32:41.272Z,56157.05
2019-04-03T23:35:11.170Z,56137.52
2019-04-03T23:37:41.391Z,56133.41
2019-04-03T23:40:11.651Z,56162.20
2019-04-03T23:42:41.524Z,56170.42
2019-04-03T23:45:12.855Z,56152.94
2019-04-03T23:47:45.110Z,56147.80
2019-04-03T23:50:15.453Z,56151.91
2019-04-03T23:52:45.394Z,56190.99
2019-04-03T23:55:15.626Z,56133.41
2019-04-03T23:57:45.832Z,56173.51
